createdAt,value
2022-11-10T19:31:10.546Z,12.28
2022-11-10T19:32:10.383Z,12.26
2022-11-10T19:33:10.329Z,12.18
2022-11-10T19:34:10.286Z,12.20
2022-11-10T19:35:10.229Z,12.23
2022-11-10T19:36:10.185Z,12.21
2022-11-10T19:37:10.134Z,12.20
2022-11-10T19:38:10.085Z,12.28
2022-11-10T19:39:10.035Z,12.20
2022-11-10T19:40:09.991Z,12.17
2022-11-10T19:41:09.941Z,12.17
2022-11-10T19:42:09.892Z,12.21
2022-11-10T19:43:09.850Z,12.20
2022-11-10T19:44:09.801Z,12.15
2022-11-10T19:45:09.751Z,12.25
2022-11-10T19:46:09.711Z,12.15
2022-11-10T19:47:09.801Z,12.18
2022-11-10T19:48:09.614Z,12.15
2022-11-10T19:49:09.572Z,12.11
2022-11-10T19:50:09.522Z,12.17
2022-11-10T19:51:09.474Z,12.12
2022-11-10T19:52:09.431Z,12.14
2022-11-10T19:53:09.389Z,12.15
2022-11-10T19:54:09.340Z,12.21
2022-11-10T19:55:09.291Z,12.17
2022-11-10T19:56:09.246Z,12.11
2022-11-10T19:57:09.203Z,12.17
2022-11-10T19:58:09.157Z,12.18
2022-11-10T19:59:09.110Z,12.10
2022-11-10T20:00:09.079Z,12.20
2022-11-10T20:01:09.102Z,12.18
2022-11-10T20:02:08.977Z,12.08
2022-11-10T20:03:09.043Z,12.12
2022-11-10T20:04:08.891Z,12.10
2022-11-10T20:05:08.839Z,12.15
2022-11-10T20:06:08.795Z,12.14
2022-11-10T20:07:08.772Z,12.17
2022-11-10T20:08:09.930Z,12.12
2022-11-10T20:09:08.657Z,12.15
2022-11-10T20:10:08.615Z,12.15
2022-11-10T20:11:08.570Z,12.07
2022-11-10T20:12:08.524Z,12.12
2022-11-10T20:13:08.479Z,12.14
2022-11-10T20:14:08.446Z,12.07
2022-11-10T20:15:08.387Z,12.08
2022-11-10T20:16:08.349Z,12.08
2022-11-10T20:17:08.298Z,12.08
2022-11-10T20:19:08.323Z,12.00
2022-11-10T20:20:08.163Z,12.08
2022-11-10T20:21:08.122Z,12.05
2022-11-10T20:22:08.072Z,12.00
2022-11-10T20:24:07.985Z,12.14
2022-11-10T20:25:07.939Z,12.08
2022-11-10T20:26:07.902Z,12.07
2022-11-10T20:27:07.847Z,12.02
2022-11-10T20:28:07.807Z,11.97
2022-11-10T20:29:07.759Z,12.10
2022-11-10T20:30:07.715Z,12.03
2022-11-10T20:31:07.669Z,12.00
2022-11-10T20:32:07.625Z,11.99
2022-11-10T20:33:07.577Z,12.05
2022-11-10T20:34:07.535Z,11.97
2022-11-10T20:35:07.601Z,12.00
2022-11-10T20:36:07.446Z,11.95
2022-11-10T20:37:07.401Z,11.97
2022-11-10T20:38:07.358Z,11.96
2022-11-10T20:39:07.307Z,11.97
2022-11-10T20:40:23.950Z,12.02
2022-11-10T20:41:07.219Z,11.96
2022-11-10T20:42:07.176Z,11.93
2022-11-10T20:44:07.085Z,11.86
2022-11-10T20:45:07.044Z,11.89
2022-11-10T20:46:07.087Z,11.85
2022-11-10T20:47:06.993Z,11.88
2022-11-10T20:48:06.906Z,11.89
2022-11-10T20:49:06.861Z,11.88
2022-11-10T20:50:11.516Z,11.86
2022-11-10T20:51:06.886Z,11.80
2022-11-10T20:52:06.726Z,11.81
2022-11-10T20:54:06.640Z,11.73
2022-11-10T20:55:06.588Z,11.77
2022-11-10T20:56:06.549Z,11.76
2022-11-10T20:58:06.455Z,11.77
2022-11-10T20:59:06.415Z,11.78
2022-11-10T21:00:06.368Z,11.74
2022-11-10T21:01:06.325Z,11.70
2022-11-10T21:02:06.361Z,11.63
2022-11-10T21:03:06.232Z,11.68
2022-11-10T21:04:06.209Z,11.68
2022-11-10T21:05:06.143Z,11.65
2022-11-10T21:06:06.094Z,11.73
2022-11-10T21:07:06.225Z,11.68
2022-11-10T21:08:06.003Z,11.76
2022-11-10T21:09:05.962Z,11.73
2022-11-10T21:10:05.916Z,11.68
2022-11-10T21:11:05.873Z,11.63
2022-11-10T21:12:05.823Z,11.60
2022-11-10T21:13:05.783Z,11.60
2022-11-10T21:14:05.734Z,11.65
2022-11-10T21:15:05.693Z,11.59
2022-11-10T21:16:05.642Z,11.60
2022-11-10T21:17:05.606Z,11.59
2022-11-10T21:18:05.602Z,11.70
2022-11-10T21:19:05.572Z,11.56
2022-11-10T21:20:05.477Z,11.62
2022-11-10T21:21:05.423Z,11.58
2022-11-10T21:22:05.371Z,11.56
2022-11-10T21:23:05.443Z,11.56
2022-11-10T21:24:05.281Z,11.55
2022-11-10T21:25:05.239Z,11.60
2022-11-10T21:26:05.190Z,11.53
2022-11-10T21:27:05.147Z,11.56
2022-11-10T21:28:05.100Z,11.49
2022-11-10T21:29:05.056Z,11.52
2022-11-10T21:30:07.759Z,11.52
2022-11-10T21:31:04.969Z,11.55
2022-11-10T21:32:04.921Z,11.43
2022-11-10T21:33:04.882Z,11.51
2022-11-10T21:34:04.836Z,11.45
2022-11-10T21:35:04.785Z,11.53
2022-11-10T21:36:04.740Z,11.51
2022-11-10T21:37:04.694Z,11.56
2022-11-10T21:38:04.646Z,11.59
2022-11-10T21:39:04.719Z,11.48
2022-11-10T21:40:04.559Z,11.51
2022-11-10T21:41:04.511Z,11.43
2022-11-10T21:42:04.464Z,11.41
2022-11-10T21:43:04.426Z,11.43
2022-11-10T21:44:04.376Z,11.48
2022-11-10T21:45:04.330Z,11.45
2022-11-10T21:46:04.288Z,11.41
2022-11-10T21:47:04.240Z,11.43
2022-11-10T21:48:04.193Z,11.49
2022-11-10T21:49:07.631Z,11.44
2022-11-10T21:51:04.055Z,11.38
2022-11-10T21:52:04.013Z,11.38
2022-11-10T21:53:03.965Z,11.43
2022-11-10T21:54:03.920Z,11.37
2022-11-10T21:55:03.987Z,11.31
2022-11-10T21:57:03.831Z,11.27
2022-11-10T21:58:03.764Z,11.31
2022-11-10T21:59:03.737Z,11.23
2022-11-10T22:00:03.676Z,11.27
2022-11-10T22:01:03.965Z,11.27
2022-11-10T22:02:03.645Z,11.23
2022-11-10T22:03:03.523Z,11.26
2022-11-10T22:04:03.479Z,11.26
2022-11-10T22:05:03.422Z,11.23
2022-11-10T22:06:03.376Z,11.27
2022-11-10T22:07:03.551Z,11.31
2022-11-10T22:08:03.284Z,11.27
2022-11-10T22:09:03.239Z,11.34
2022-11-10T22:10:03.195Z,11.26
2022-11-10T22:11:03.264Z,11.22
2022-11-10T22:12:03.102Z,11.20
2022-11-10T22:13:03.058Z,11.22
2022-11-10T22:14:03.021Z,11.18
2022-11-10T22:15:02.970Z,11.22
2022-11-10T22:16:02.921Z,11.20
2022-11-10T22:17:02.880Z,11.18
2022-11-10T22:18:02.838Z,11.20
2022-11-10T22:19:02.800Z,11.15
2022-11-10T22:20:02.743Z,11.19
2022-11-10T22:21:02.694Z,11.22
2022-11-10T22:22:04.165Z,11.16
2022-11-10T22:23:02.608Z,11.23
2022-11-10T22:24:02.574Z,11.25
2022-11-10T22:25:02.529Z,11.16
2022-11-10T22:26:02.481Z,11.16
2022-11-10T22:27:02.533Z,11.13
2022-11-10T22:28:02.374Z,11.15
2022-11-10T22:29:02.335Z,11.16
2022-11-10T22:30:02.287Z,11.05
2022-11-10T22:31:02.240Z,11.13
2022-11-10T22:32:02.193Z,11.00
2022-11-10T22:33:02.196Z,11.08
2022-11-10T22:34:02.100Z,11.05
2022-11-10T22:35:02.057Z,11.07
2022-11-10T22:36:02.010Z,11.05
2022-11-10T22:37:01.967Z,11.07
2022-11-10T22:38:01.919Z,11.07
2022-11-10T22:39:03.560Z,11.05
2022-11-10T22:40:01.840Z,11.04
2022-11-10T22:41:01.783Z,11.05
2022-11-10T22:42:01.736Z,11.00
2022-11-10T22:43:01.823Z,11.10
2022-11-10T22:44:01.672Z,11.01
2022-11-10T22:45:01.607Z,11.07
2022-11-10T22:46:01.555Z,11.00
2022-11-10T22:47:01.514Z,11.07
2022-11-10T22:48:01.465Z,10.97
2022-11-10T22:49:01.418Z,10.95
2022-11-10T22:50:01.387Z,10.94
2022-11-10T22:51:01.328Z,10.95
2022-11-10T22:52:01.310Z,10.94
2022-11-10T22:53:01.236Z,10.90
2022-11-10T22:54:01.191Z,10.97
2022-11-10T22:55:01.146Z,10.94
2022-11-10T22:56:01.108Z,10.95
2022-11-10T22:57:01.056Z,10.97
2022-11-10T22:58:01.006Z,10.97
2022-11-10T22:59:01.081Z,10.87
2022-11-10T23:00:00.927Z,10.90
2022-11-10T23:01:00.890Z,10.90
2022-11-10T23:02:00.975Z,10.86
2022-11-10T23:03:00.780Z,10.90
2022-11-10T23:04:00.738Z,10.90
2022-11-10T23:05:00.688Z,10.95
2022-11-10T23:06:00.640Z,10.89
2022-11-10T23:07:00.663Z,10.89
2022-11-10T23:08:00.551Z,10.94
2022-11-10T23:09:00.508Z,10.94
2022-11-10T23:10:00.457Z,10.89
2022-11-10T23:11:00.414Z,10.86
2022-11-10T23:12:00.368Z,10.92
2022-11-10T23:13:00.323Z,10.92
2022-11-10T23:14:00.277Z,10.87
2022-11-10T23:15:00.349Z,10.84
2022-11-10T23:16:00.184Z,10.94
2022-11-10T23:17:00.140Z,10.95
2022-11-10T23:18:06.308Z,10.87
2022-11-10T23:19:00.051Z,10.90
2022-11-10T23:20:00.004Z,10.89
2022-11-10T23:20:59.959Z,10.86
2022-11-10T23:21:59.911Z,10.89
2022-11-10T23:22:59.868Z,10.87
2022-11-10T23:23:59.823Z,10.87
2022-11-10T23:24:59.782Z,10.90
2022-11-10T23:25:59.730Z,10.87
2022-11-10T23:26:59.688Z,10.89
2022-11-10T23:27:59.636Z,10.90
2022-11-10T23:28:59.593Z,10.94
2022-11-10T23:29:59.546Z,10.94
2022-11-10T23:30:59.616Z,10.90
2022-11-10T23:31:59.456Z,10.90
2022-11-10T23:32:59.410Z,10.86
2022-11-10T23:33:59.367Z,10.90
2022-11-10T23:34:59.318Z,10.94
2022-11-10T23:35:59.270Z,10.92
2022-11-10T23:36:59.261Z,10.84
2022-11-10T23:37:59.179Z,10.89
2022-11-10T23:38:59.141Z,10.80
2022-11-10T23:39:59.094Z,10.83
2022-11-10T23:40:59.043Z,10.79
2022-11-10T23:41:58.996Z,10.80
2022-11-10T23:42:58.982Z,10.82
2022-11-10T23:43:58.914Z,10.77
2022-11-10T23:44:58.866Z,10.82
2022-11-10T23:46:07.423Z,10.79
2022-11-10T23:46:58.892Z,10.84
2022-11-10T23:48:01.920Z,10.80
2022-11-10T23:48:58.681Z,10.86
2022-11-10T23:49:58.629Z,10.80
2022-11-10T23:50:58.587Z,10.87
2022-11-10T23:51:58.539Z,10.84
2022-11-10T23:52:58.495Z,10.84
2022-11-10T23:53:58.465Z,10.83
2022-11-10T23:54:58.402Z,10.82
2022-11-10T23:55:58.373Z,10.77
2022-11-10T23:56:58.311Z,10.86
2022-11-10T23:57:58.266Z,10.87
2022-11-10T23:58:58.223Z,10.84
2022-11-10T23:59:58.178Z,10.82
